Time;durP1;ratioP1;P1;durP2;ratioP2;P2;SDS_P1;SDS_P2;PMS_P1;PMS_P2;Temp;Humidity;BMP_temperature;BMP_pressure;BME280_temperature;BME280_humidity;BME280_pressure;Samples;Min_cycle;Max_cycle;Signal;HPM_P1;HPM_P2
2021/04/25 00:01:33;;;;;;;6.93;3.50;;;3.60;58.80;;;;;;6163564;23;20009;-96
2021/04/25 00:03:59;;;;;;;7.57;3.72;;;3.60;59.00;;;;;;6187155;23;20005;-94
2021/04/25 00:06:24;;;;;;;5.05;3.17;;;3.60;58.80;;;;;;6187790;23;20009;-95
2021/04/25 00:08:50;;;;;;;8.55;4.18;;;3.60;58.70;;;;;;6189589;23;20036;-96
2021/04/25 00:11:16;;;;;;;7.05;3.88;;;3.50;58.90;;;;;;6187841;23;20079;-96
2021/04/25 00:13:43;;;;;;;5.30;3.30;;;3.50;58.90;;;;;;6188175;23;20079;-96
2021/04/25 00:16:13;;;;;;;5.90;3.33;;;3.50;58.80;;;;;;6187699;23;20051;-95
2021/04/25 00:18:39;;;;;;;5.88;3.13;;;3.40;59.10;;;;;;6188845;23;19997;-95
2021/04/25 00:21:05;;;;;;;5.35;3.25;;;3.40;59.20;;;;;;6187948;23;20009;-95
2021/04/25 00:23:31;;;;;;;7.25;3.55;;;3.40;59.20;;;;;;6189419;23;20005;-95
2021/04/25 00:25:57;;;;;;;4.22;2.85;;;3.40;59.10;;;;;;6188032;23;20063;-96
2021/04/25 00:28:23;;;;;;;7.85;3.42;;;3.40;59.30;;;;;;6196291;23;20020;-96
2021/04/25 00:30:49;;;;;;;6.22;3.42;;;3.40;59.30;;;;;;6222782;23;20000;-94
2021/04/25 00:33:15;;;;;;;7.55;3.50;;;3.40;59.60;;;;;;6222810;23;20004;-95
2021/04/25 00:35:41;;;;;;;6.88;3.33;;;3.40;59.30;;;;;;6222619;23;20004;-96
2021/04/25 00:38:07;;;;;;;9.60;4.53;;;3.30;59.20;;;;;;6223171;23;20007;-94
2021/04/25 00:40:32;;;;;;;9.90;4.38;;;3.30;59.00;;;;;;6222979;23;20000;-95
2021/04/25 00:42:59;;;;;;;7.93;3.97;;;3.30;59.10;;;;;;6222538;23;20002;-95
2021/04/25 00:45:24;;;;;;;6.35;3.47;;;3.20;59.40;;;;;;6223116;23;20398;-94
2021/04/25 00:47:50;;;;;;;6.53;3.42;;;3.20;59.40;;;;;;6222515;23;20034;-95
2021/04/25 00:50:20;;;;;;;5.78;3.88;;;3.20;59.70;;;;;;6222068;23;20309;-95
2021/04/25 00:52:47;;;;;;;7.57;4.03;;;3.20;59.80;;;;;;6222496;23;20015;-95
2021/04/25 00:55:14;;;;;;;5.50;3.13;;;3.20;59.90;;;;;;6222343;23;20000;-95
2021/04/25 00:57:40;;;;;;;8.98;4.05;;;3.20;60.10;;;;;;6222451;23;20001;-96
2021/04/25 01:00:08;;;;;;;8.07;4.28;;;3.10;59.90;;;;;;6222501;23;20043;-95
2021/04/25 01:02:35;;;;;;;8.02;4.03;;;3.10;59.90;;;;;;6222376;23;20008;-95
2021/04/25 01:05:00;;;;;;;7.95;3.58;;;3.10;60.20;;;;;;6223119;23;20007;-94
2021/04/25 01:07:26;;;;;;;10.65;4.90;;;3.10;60.60;;;;;;6223131;23;20004;-96
2021/04/25 01:09:52;;;;;;;7.38;3.95;;;3.10;60.80;;;;;;6249282;23;20075;-95
2021/04/25 01:12:18;;;;;;;5.63;3.08;;;3.00;60.50;;;;;;6222665;23;20000;-95
2021/04/25 01:14:44;;;;;;;5.00;3.35;;;3.00;60.60;;;;;;6222429;23;20000;-96
2021/04/25 01:17:09;;;;;;;7.53;4.25;;;3.00;60.50;;;;;;6222526;23;20134;-96
2021/04/25 01:19:35;;;;;;;7.90;4.20;;;3.00;60.50;;;;;;6249418;22;20487;-96
2021/04/25 01:22:01;;;;;;;9.10;3.75;;;3.00;60.80;;;;;;6222749;23;20005;-95
2021/04/25 01:24:27;;;;;;;8.30;4.20;;;3.00;60.90;;;;;;6222233;23;20000;-95
2021/04/25 01:26:53;;;;;;;9.30;4.05;;;3.00;61.30;;;;;;6248784;23;20003;-95
2021/04/25 01:29:19;;;;;;;6.80;4.20;;;3.00;60.90;;;;;;6221682;23;20040;-95
2021/04/25 01:31:44;;;;;;;6.18;3.53;;;3.00;61.50;;;;;;6222278;23;20015;-95
2021/04/25 01:34:10;;;;;;;7.55;3.78;;;2.90;61.70;;;;;;6222307;23;20008;-96
2021/04/25 01:36:36;;;;;;;5.90;3.50;;;3.00;61.60;;;;;;6248883;23;20018;-95
2021/04/25 01:39:03;;;;;;;4.38;3.40;;;2.90;61.20;;;;;;6222315;23;20319;-96
2021/04/25 01:41:29;;;;;;;7.20;4.13;;;2.90;61.30;;;;;;6222239;23;20335;-95
2021/04/25 01:43:56;;;;;;;8.05;5.22;;;2.90;61.30;;;;;;6222159;23;20004;-95
2021/04/25 01:46:22;;;;;;;10.50;5.32;;;2.90;61.20;;;;;;6222564;23;20001;-96
2021/04/25 01:48:48;;;;;;;10.77;5.43;;;2.80;61.40;;;;;;6222457;23;20412;-95
2021/04/25 01:51:13;;;;;;;8.57;5.00;;;2.80;61.50;;;;;;6222217;23;20058;-96
2021/04/25 01:53:39;;;;;;;12.50;4.80;;;2.70;61.50;;;;;;6222013;23;20381;-95
2021/04/25 01:56:05;;;;;;;10.13;5.18;;;2.70;61.60;;;;;;6248439;23;20011;-95
2021/04/25 01:58:31;;;;;;;12.73;4.30;;;2.60;61.80;;;;;;6248652;23;20027;-94
2021/04/25 02:00:57;;;;;;;9.18;5.00;;;2.50;61.90;;;;;;6223318;23;20011;-95
2021/04/25 02:03:25;;;;;;;8.45;4.65;;;2.50;62.10;;;;;;6222436;23;19996;-95
2021/04/25 02:05:51;;;;;;;8.00;4.55;;;2.40;62.30;;;;;;6222945;23;20007;-94
2021/04/25 02:08:18;;;;;;;5.82;4.47;;;2.30;62.50;;;;;;6222707;23;20088;-96
2021/04/25 02:10:45;;;;;;;10.02;4.50;;;2.30;62.50;;;;;;6223670;23;20027;-96
2021/04/25 02:13:11;;;;;;;5.15;3.42;;;2.20;62.60;;;;;;6223165;23;20031;-96
2021/04/25 02:15:37;;;;;;;11.38;4.05;;;2.20;62.70;;;;;;6224318;23;20430;-94
2021/04/25 02:18:03;;;;;;;6.32;3.85;;;2.20;62.90;;;;;;6222450;23;20027;-96
2021/04/25 02:20:30;;;;;;;7.55;3.72;;;2.20;62.90;;;;;;6222362;23;20004;-95
2021/04/25 02:22:56;;;;;;;5.82;3.90;;;2.20;63.10;;;;;;6221876;23;20049;-94
2021/04/25 02:25:23;;;;;;;6.85;4.22;;;2.10;63.00;;;;;;6248652;23;20018;-95
2021/04/25 02:27:50;;;;;;;5.93;3.95;;;2.10;63.20;;;;;;6221620;23;20004;-95
2021/04/25 02:30:22;;;;;;;5.95;3.83;;;2.10;63.30;;;;;;6221954;23;20050;-96
2021/04/25 02:32:48;;;;;;;8.05;4.13;;;2.00;63.20;;;;;;6221976;23;20063;-95
2021/04/25 02:35:16;;;;;;;6.03;3.88;;;2.00;63.20;;;;;;6222022;23;20004;-95
2021/04/25 02:37:41;;;;;;;7.13;4.00;;;2.00;63.40;;;;;;6221628;23;20004;-96
2021/04/25 02:40:12;;;;;;;5.90;3.60;;;2.00;63.50;;;;;;6221896;23;20046;-95
2021/04/25 02:42:39;;;;;;;4.47;3.03;;;2.00;63.60;;;;;;6222313;23;20003;-95
2021/04/25 02:45:05;;;;;;;6.45;4.10;;;2.00;63.70;;;;;;6248480;23;20007;-96
2021/04/25 02:47:31;;;;;;;6.88;3.92;;;2.00;64.20;;;;;;6222003;23;20434;-95
2021/04/25 02:49:57;;;;;;;6.53;3.83;;;2.00;63.70;;;;;;6221760;23;20040;-95
2021/04/25 02:52:26;;;;;;;7.50;3.80;;;2.00;63.90;;;;;;6221140;23;20007;-95
2021/04/25 02:54:55;;;;;;;5.90;3.35;;;2.00;63.80;;;;;;6248799;23;19996;-96
2021/04/25 02:57:22;;;;;;;7.07;3.70;;;2.00;63.90;;;;;;6221280;23;20000;-96
2021/04/25 02:59:48;;;;;;;5.45;3.58;;;2.00;63.90;;;;;;6248796;23;20003;-95
2021/04/25 03:02:14;;;;;;;8.10;4.18;;;2.00;63.90;;;;;;6248322;23;20058;-96
2021/04/25 03:04:40;;;;;;;7.05;4.13;;;2.10;64.00;;;;;;6222083;23;20008;-95
2021/04/25 03:07:05;;;;;;;9.35;4.13;;;2.20;64.10;;;;;;6223688;23;20322;-95
2021/04/25 03:09:31;;;;;;;6.85;4.10;;;2.20;64.10;;;;;;6223439;23;20483;-96
2021/04/25 03:11:57;;;;;;;5.95;3.58;;;2.30;64.10;;;;;;6223905;23;20000;-95
2021/04/25 03:14:22;;;;;;;6.72;4.43;;;2.40;64.00;;;;;;6223970;23;20004;-95
2021/04/25 03:16:48;;;;;;;9.45;4.43;;;2.50;63.90;;;;;;6223995;23;20003;-95
2021/04/25 03:19:14;;;;;;;5.53;4.05;;;2.60;64.00;;;;;;6250133;22;20012;-95
2021/04/25 03:21:40;;;;;;;5.82;3.85;;;2.60;63.80;;;;;;6223908;23;20036;-96
2021/04/25 03:24:06;;;;;;;6.50;4.35;;;2.70;63.60;;;;;;6223731;23;20004;-95
2021/04/25 03:26:31;;;;;;;6.30;3.75;;;2.80;63.50;;;;;;6223247;23;20438;-95
2021/04/25 03:28:57;;;;;;;7.28;4.35;;;2.80;63.30;;;;;;6206010;23;20013;-95
2021/04/25 03:31:23;;;;;;;7.82;4.75;;;2.90;63.40;;;;;;6188733;23;20009;-96
2021/04/25 03:33:51;;;;;;;6.32;4.45;;;3.00;63.30;;;;;;6188634;23;20409;-96
2021/04/25 03:36:17;;;;;;;7.45;4.72;;;3.00;63.20;;;;;;6188320;23;20001;-96
2021/04/25 03:38:43;;;;;;;9.38;5.50;;;3.00;63.10;;;;;;6189694;23;20020;-96
2021/04/25 03:41:08;;;;;;;9.45;4.72;;;3.10;63.10;;;;;;6189459;23;20364;-96
2021/04/25 03:43:36;;;;;;;10.63;5.88;;;3.10;63.00;;;;;;6188665;23;20016;-96
2021/04/25 03:46:02;;;;;;;9.20;5.43;;;3.20;63.20;;;;;;6200200;23;20002;-94
2021/04/25 03:48:28;;;;;;;8.82;5.25;;;3.30;63.10;;;;;;6197582;23;20028;-93
2021/04/25 03:50:54;;;;;;;9.07;5.72;;;3.30;63.00;;;;;;6171741;23;20013;-94
2021/04/25 03:53:20;;;;;;;11.80;5.15;;;3.40;62.50;;;;;;6189084;23;20055;-94
2021/04/25 03:55:45;;;;;;;7.22;5.15;;;3.50;62.70;;;;;;6188633;23;20029;-94
2021/04/25 03:58:11;;;;;;;10.88;5.10;;;3.50;62.60;;;;;;6189922;23;20005;-93
2021/04/25 04:00:37;;;;;;;8.60;4.63;;;3.50;62.40;;;;;;6189346;23;20012;-95
2021/04/25 04:03:03;;;;;;;8.88;5.43;;;3.60;62.50;;;;;;6163101;23;20047;-94
2021/04/25 04:05:28;;;;;;;7.15;5.03;;;3.60;62.40;;;;;;6189281;23;20325;-96
2021/04/25 04:07:54;;;;;;;6.82;5.13;;;3.70;62.40;;;;;;6189138;23;20468;-93
2021/04/25 04:10:20;;;;;;;9.82;4.97;;;3.80;62.40;;;;;;6187938;23;20016;-95
2021/04/25 04:12:45;;;;;;;9.32;4.97;;;3.90;62.20;;;;;;6189581;23;20009;-93
2021/04/25 04:15:12;;;;;;;7.22;5.10;;;4.00;62.20;;;;;;6187695;23;20033;-95
2021/04/25 04:17:38;;;;;;;7.30;4.53;;;4.10;62.00;;;;;;6187446;23;20428;-94
2021/04/25 04:20:05;;;;;;;9.10;4.82;;;4.20;61.90;;;;;;6187989;23;20012;-94
2021/04/25 04:22:31;;;;;;;7.55;4.28;;;4.30;61.70;;;;;;6188032;23;20001;-94
2021/04/25 04:24:57;;;;;;;6.28;4.28;;;4.50;61.70;;;;;;6188088;23;20028;-96
2021/04/25 04:27:22;;;;;;;5.25;3.92;;;4.70;61.50;;;;;;6188554;23;20004;-95
2021/04/25 04:29:48;;;;;;;5.43;3.28;;;4.90;61.20;;;;;;6187636;23;20318;-93
2021/04/25 04:32:14;;;;;;;5.63;3.60;;;5.10;60.80;;;;;;6188178;23;20372;-95
2021/04/25 04:34:39;;;;;;;7.38;4.40;;;5.30;60.40;;;;;;6163186;23;20005;-95
2021/04/25 04:37:05;;;;;;;6.10;4.25;;;5.40;59.80;;;;;;6187771;23;20087;-94
2021/04/25 04:39:31;;;;;;;5.80;3.53;;;5.50;59.40;;;;;;6187828;23;20028;-94
2021/04/25 04:41:57;;;;;;;4.93;3.50;;;5.60;59.30;;;;;;6188359;23;20488;-94
2021/04/25 04:44:23;;;;;;;5.95;3.40;;;5.60;59.20;;;;;;6189803;23;20008;-95
2021/04/25 04:46:48;;;;;;;5.85;4.57;;;5.70;59.10;;;;;;6189412;23;20004;-95
2021/04/25 04:49:14;;;;;;;9.43;4.88;;;5.80;59.10;;;;;;6187855;23;20008;-95
2021/04/25 04:51:41;;;;;;;6.10;4.32;;;6.00;59.10;;;;;;6188928;23;20106;-95
2021/04/25 04:54:07;;;;;;;6.50;4.50;;;6.10;59.00;;;;;;6189038;23;20044;-94
2021/04/25 04:56:33;;;;;;;6.90;3.97;;;6.30;59.00;;;;;;6188231;23;20006;-94
2021/04/25 04:58:59;;;;;;;6.10;3.78;;;6.60;58.90;;;;;;6187605;23;20088;-95
2021/04/25 05:01:24;;;;;;;6.30;4.55;;;6.80;58.50;;;;;;6162463;23;20091;-95
2021/04/25 05:03:50;;;;;;;6.93;3.92;;;7.00;58.00;;;;;;6187802;23;20001;-96
2021/04/25 05:06:16;;;;;;;5.82;4.28;;;7.10;57.50;;;;;;6188308;23;20005;-94
2021/04/25 05:08:42;;;;;;;8.43;4.85;;;7.20;56.90;;;;;;6187726;23;20485;-96
2021/04/25 05:11:07;;;;;;;8.25;4.72;;;7.20;56.40;;;;;;6163238;23;20009;-95
2021/04/25 05:13:33;;;;;;;8.82;4.40;;;7.20;56.50;;;;;;6188578;23;20084;-95
2021/04/25 05:15:59;;;;;;;8.35;4.50;;;7.30;56.60;;;;;;6189385;23;20017;-96
2021/04/25 05:18:25;;;;;;;6.22;4.38;;;7.30;56.30;;;;;;6189271;23;20318;-95
2021/04/25 05:20:51;;;;;;;6.40;3.80;;;7.40;56.10;;;;;;6189011;23;20008;-95
2021/04/25 05:23:17;;;;;;;8.07;4.00;;;7.60;56.20;;;;;;6187701;23;20084;-94
2021/04/25 05:25:43;;;;;;;8.15;5.25;;;7.70;56.10;;;;;;6189350;23;19997;-95
2021/04/25 05:28:09;;;;;;;6.47;4.35;;;7.80;55.40;;;;;;6191569;23;20016;-96
2021/04/25 05:30:34;;;;;;;6.65;4.55;;;8.00;55.00;;;;;;6223268;23;20020;-95
2021/04/25 05:33:00;;;;;;;7.82;4.53;;;8.10;54.80;;;;;;6250085;23;20042;-95
2021/04/25 05:35:26;;;;;;;7.07;4.47;;;8.30;54.60;;;;;;6228472;23;20027;-96
2021/04/25 05:37:52;;;;;;;8.75;5.07;;;8.40;53.60;;;;;;6224070;23;20004;-95
2021/04/25 05:40:18;;;;;;;9.32;4.90;;;8.50;53.00;;;;;;6223471;23;20000;-96
2021/04/25 05:42:43;;;;;;;11.38;4.78;;;8.40;52.90;;;;;;6223152;23;20024;-94
2021/04/25 05:45:20;;;;;;;6.43;3.75;;;8.40;53.20;;;;;;6222842;23;20048;-95
2021/04/25 05:47:58;;;;;;;5.45;3.33;;;8.40;53.10;;;;;;6223043;23;20000;-94
2021/04/25 05:50:26;;;;;;;5.55;3.90;;;8.50;53.10;;;;;;6223071;23;20072;-94
2021/04/25 05:52:52;;;;;;;6.88;3.58;;;8.70;53.10;;;;;;6226113;23;20057;-96
2021/04/25 05:55:18;;;;;;;6.28;3.55;;;8.90;53.00;;;;;;6232548;23;19996;-95
2021/04/25 05:57:45;;;;;;;6.65;3.50;;;9.10;52.90;;;;;;6239398;23;20011;-95
2021/04/25 06:00:14;;;;;;;3.97;2.85;;;9.40;52.60;;;;;;6246814;22;20032;-93
2021/04/25 06:02:40;;;;;;;4.32;3.17;;;9.70;51.70;;;;;;6249018;22;20016;-95
2021/04/25 06:05:06;;;;;;;4.07;3.13;;;10.00;50.60;;;;;;6248521;22;19995;-94
2021/04/25 06:07:32;;;;;;;5.75;3.20;;;10.10;49.80;;;;;;6249004;22;20000;-95
2021/04/25 06:09:58;;;;;;;3.35;3.05;;;10.20;50.10;;;;;;6224440;23;20008;-96
2021/04/25 06:12:24;;;;;;;3.95;2.42;;;10.20;49.50;;;;;;6223022;23;19996;-96
2021/04/25 06:14:53;;;;;;;4.07;2.95;;;10.20;49.30;;;;;;6222156;23;20003;-96
2021/04/25 06:17:19;;;;;;;3.40;2.33;;;10.10;49.30;;;;;;6249817;23;19992;-94
2021/04/25 06:19:44;;;;;;;3.65;2.70;;;10.10;49.30;;;;;;6249464;22;20038;-94
2021/04/25 06:22:13;;;;;;;2.53;2.28;;;10.10;49.10;;;;;;6250484;23;19998;-96
2021/04/25 06:24:40;;;;;;;3.80;2.60;;;10.20;49.10;;;;;;6222639;23;20000;-96
2021/04/25 06:27:06;;;;;;;4.25;2.53;;;10.20;49.40;;;;;;6249537;23;20007;-96
2021/04/25 06:29:32;;;;;;;2.60;2.33;;;10.40;49.40;;;;;;6221443;23;20016;-95
2021/04/25 06:31:58;;;;;;;6.80;2.40;;;10.60;49.50;;;;;;6222561;23;20070;-95
2021/04/25 06:34:23;;;;;;;4.70;2.72;;;11.00;49.40;;;;;;6224973;23;20079;-96
2021/04/25 06:36:52;;;;;;;3.38;2.63;;;11.30;48.50;;;;;;6228018;23;20015;-96
2021/04/25 06:39:20;;;;;;;3.83;2.60;;;11.50;48.10;;;;;;6224313;23;20007;-96
2021/04/25 06:41:46;;;;;;;4.55;2.70;;;11.70;47.50;;;;;;6228292;23;20001;-96
2021/04/25 06:44:15;;;;;;;3.15;2.55;;;11.80;47.30;;;;;;6228144;23;20079;-96
2021/04/25 06:46:41;;;;;;;4.35;2.75;;;11.80;47.30;;;;;;6229203;23;19996;-96
2021/04/25 06:49:09;;;;;;;3.20;2.47;;;11.90;47.20;;;;;;6256078;23;19999;-96
2021/04/25 06:51:37;;;;;;;3.55;2.78;;;11.80;46.80;;;;;;6229688;23;20390;-96
2021/04/25 06:54:14;;;;;;;6.20;3.15;;;11.80;46.90;;;;;;6230391;23;20033;-95
2021/04/25 06:56:42;;;;;;;4.25;2.47;;;11.70;46.80;;;;;;6230049;23;20065;-95
2021/04/25 06:59:08;;;;;;;3.45;2.65;;;11.70;46.20;;;;;;6228147;23;20001;-95
2021/04/25 07:01:34;;;;;;;2.72;2.35;;;11.80;45.90;;;;;;6231518;23;20054;-95
2021/04/25 07:04:00;;;;;;;4.82;2.90;;;11.70;45.60;;;;;;6230651;23;20000;-95
2021/04/25 07:06:35;;;;;;;4.07;2.53;;;11.80;45.40;;;;;;6257995;23;20004;-96
2021/04/25 07:09:01;;;;;;;4.50;2.90;;;11.80;45.50;;;;;;6227596;23;20000;-95
2021/04/25 07:11:26;;;;;;;5.95;3.05;;;11.90;45.10;;;;;;6228966;23;20015;-95
2021/04/25 07:13:54;;;;;;;4.63;2.80;;;11.80;43.40;;;;;;6261768;23;20022;-95
2021/04/25 07:16:20;;;;;;;5.05;3.25;;;11.70;43.40;;;;;;6243061;23;20000;-94
2021/04/25 07:18:46;;;;;;;4.18;3.03;;;11.70;43.50;;;;;;6240343;23;20000;-96
2021/04/25 07:21:15;;;;;;;6.07;3.00;;;11.80;43.90;;;;;;6231109;23;20107;-95
2021/04/25 07:23:40;;;;;;;6.00;2.92;;;11.90;43.50;;;;;;6230069;23;20031;-96
2021/04/25 07:26:08;;;;;;;4.15;3.20;;;12.00;43.50;;;;;;6229493;23;20004;-95
2021/04/25 07:28:36;;;;;;;4.25;3.30;;;12.10;43.20;;;;;;6227532;23;20032;-96
2021/04/25 07:31:02;;;;;;;4.75;3.15;;;12.20;43.70;;;;;;6227410;23;20004;-96
2021/04/25 07:33:29;;;;;;;4.80;3.55;;;12.30;43.50;;;;;;6253044;23;19996;-95
2021/04/25 07:35:55;;;;;;;3.38;2.60;;;12.40;42.40;;;;;;6228361;23;20060;-94
2021/04/25 07:38:21;;;;;;;4.72;3.35;;;12.40;42.40;;;;;;6225749;23;20000;-95
2021/04/25 07:40:50;;;;;;;4.72;3.10;;;12.30;42.40;;;;;;6228885;23;20074;-95
2021/04/25 07:43:16;;;;;;;5.72;3.22;;;12.10;41.60;;;;;;6223910;23;20004;-94
2021/04/25 07:45:42;;;;;;;5.70;3.50;;;12.00;42.50;;;;;;6226770;23;19997;-95
2021/04/25 07:48:07;;;;;;;4.45;3.25;;;12.00;42.00;;;;;;6224309;23;20004;-95
2021/04/25 07:50:34;;;;;;;4.47;3.28;;;12.10;42.20;;;;;;6250900;23;20059;-95
2021/04/25 07:53:07;;;;;;;5.25;3.72;;;12.30;41.50;;;;;;6253215;23;20000;-95
2021/04/25 07:55:35;;;;;;;6.20;4.38;;;12.50;40.40;;;;;;6226223;23;19996;-94
2021/04/25 07:58:00;;;;;;;4.90;3.53;;;12.60;40.80;;;;;;6226741;23;20497;-94
2021/04/25 08:00:26;;;;;;;3.60;3.05;;;12.60;39.80;;;;;;6226343;23;20031;-95
2021/04/25 08:02:52;;;;;;;5.45;3.88;;;12.60;40.00;;;;;;6256370;23;20059;-95
2021/04/25 08:05:18;;;;;;;5.38;3.88;;;12.50;39.90;;;;;;6227129;23;20004;-95
2021/04/25 08:07:45;;;;;;;10.80;4.10;;;12.50;40.00;;;;;;6229249;23;20032;-94
2021/04/25 08:10:13;;;;;;;8.68;3.92;;;12.40;39.60;;;;;;6256302;23;20032;-95
2021/04/25 08:12:39;;;;;;;5.35;3.70;;;12.30;39.90;;;;;;6224371;23;20022;-95
2021/04/25 08:15:06;;;;;;;4.32;3.55;;;12.30;40.70;;;;;;6223151;23;20004;-95
2021/04/25 08:17:32;;;;;;;4.53;3.00;;;12.30;41.00;;;;;;6223211;23;20023;-95
2021/04/25 08:19:58;;;;;;;4.13;3.25;;;12.50;41.20;;;;;;6251516;22;19997;-93
2021/04/25 08:22:24;;;;;;;4.70;3.53;;;12.70;40.50;;;;;;6228627;23;20062;-96
2021/04/25 08:24:50;;;;;;;4.55;3.33;;;12.90;39.80;;;;;;6257874;23;19999;-96
2021/04/25 08:27:16;;;;;;;4.32;3.30;;;13.00;39.30;;;;;;6232945;23;20060;-94
2021/04/25 08:29:42;;;;;;;4.50;3.28;;;13.10;39.00;;;;;;6259727;23;20416;-93
2021/04/25 08:32:08;;;;;;;5.00;3.35;;;13.10;38.50;;;;;;6233585;23;20005;-93
2021/04/25 08:34:34;;;;;;;4.93;3.15;;;13.20;38.10;;;;;;6225651;23;20130;-96
2021/04/25 08:37:00;;;;;;;4.40;2.70;;;13.10;38.20;;;;;;6227817;23;20000;-94
2021/04/25 08:39:26;;;;;;;8.07;4.05;;;13.10;38.80;;;;;;6226609;23;20003;-96
2021/04/25 08:41:56;;;;;;;4.00;3.10;;;13.20;38.50;;;;;;6228671;23;20083;-95
2021/04/25 08:44:24;;;;;;;4.60;2.95;;;13.20;37.80;;;;;;6231079;23;20395;-95
2021/04/25 08:46:51;;;;;;;3.35;2.63;;;13.00;36.40;;;;;;6257296;23;20315;-93
2021/04/25 08:49:18;;;;;;;4.72;2.78;;;12.90;36.60;;;;;;6230346;23;20023;-95
2021/04/25 08:51:44;;;;;;;6.50;3.08;;;12.80;37.20;;;;;;6227906;23;20016;-95
2021/04/25 08:54:12;;;;;;;3.05;2.72;;;12.80;37.40;;;;;;6224596;23;19996;-95
2021/04/25 08:56:38;;;;;;;3.97;3.05;;;12.90;38.10;;;;;;6225692;23;20022;-95
2021/04/25 08:59:04;;;;;;;4.75;3.13;;;13.00;38.20;;;;;;6228763;23;20001;-95
2021/04/25 09:01:29;;;;;;;5.97;3.42;;;13.20;38.30;;;;;;6231024;23;20366;-94
2021/04/25 09:03:56;;;;;;;5.65;3.75;;;13.10;37.20;;;;;;6231200;23;20373;-94
2021/04/25 09:06:22;;;;;;;5.38;3.58;;;13.00;37.20;;;;;;6257249;23;19996;-95
2021/04/25 09:08:56;;;;;;;6.43;3.72;;;12.90;37.70;;;;;;6230586;23;20003;-95
2021/04/25 09:11:29;;;;;;;8.43;3.58;;;12.80;37.70;;;;;;6229014;23;20004;-95
2021/04/25 09:14:17;;;;;;;3.80;3.13;;;12.90;38.00;;;;;;6232745;23;20370;-95
2021/04/25 09:17:07;;;;;;;3.05;2.72;;;13.10;38.10;;;;;;6256987;23;20019;-95
2021/04/25 09:19:52;;;;;;;3.88;2.72;;;13.40;38.40;;;;;;6228563;22;20006;-94
2021/04/25 09:22:19;;;;;;;6.00;3.35;;;13.60;38.00;;;;;;6226653;23;19997;-95
2021/04/25 09:24:45;;;;;;;5.03;3.47;;;13.80;37.60;;;;;;6228307;23;20321;-95
2021/04/25 09:27:11;;;;;;;3.78;3.40;;;13.90;37.80;;;;;;6230814;23;19997;-96
2021/04/25 09:29:51;;;;;;;6.63;3.80;;;13.80;37.20;;;;;;6234731;23;20019;-96
2021/04/25 09:32:23;;;;;;;5.45;3.67;;;13.70;37.30;;;;;;6232703;23;20063;-95
2021/04/25 09:34:49;;;;;;;3.95;3.28;;;13.50;37.80;;;;;;6232025;23;20301;-96
2021/04/25 09:37:18;;;;;;;4.53;3.00;;;13.30;37.60;;;;;;6234691;23;20427;-96
2021/04/25 09:40:21;;;;;;;6.82;3.30;;;13.20;38.00;;;;;;6231492;23;20003;-90
2021/04/25 09:43:07;;;;;;;4.63;3.05;;;13.20;37.30;;;;;;6244312;22;20024;-94
2021/04/25 09:45:38;;;;;;;8.65;4.63;;;13.30;37.90;;;;;;6243701;23;19985;-96
2021/04/25 09:48:19;;;;;;;5.57;4.10;;;13.50;38.00;;;;;;6243813;23;20016;-94
2021/04/25 09:50:46;;;;;;;4.47;3.40;;;13.60;37.50;;;;;;6237290;23;20008;-94
2021/04/25 09:53:18;;;;;;;7.38;3.83;;;13.60;37.00;;;;;;6236164;23;20031;-96
2021/04/25 09:55:56;;;;;;;5.55;3.58;;;13.60;36.40;;;;;;6235934;23;20000;-95
2021/04/25 09:58:26;;;;;;;5.95;3.88;;;13.70;36.80;;;;;;6233882;23;19996;-96
2021/04/25 10:00:52;;;;;;;5.80;3.85;;;13.80;37.20;;;;;;6237046;23;20051;-95
2021/04/25 10:03:22;;;;;;;5.18;3.17;;;13.80;36.70;;;;;;6239244;23;20000;-95
2021/04/25 10:05:59;;;;;;;3.63;3.00;;;13.90;36.90;;;;;;6238145;23;20010;-95
2021/04/25 10:08:30;;;;;;;5.40;3.67;;;14.20;35.30;;;;;;6235805;23;20450;-96
2021/04/25 10:10:56;;;;;;;7.68;3.78;;;14.10;35.50;;;;;;6234447;23;20000;-95
2021/04/25 10:13:26;;;;;;;4.18;2.97;;;14.10;35.70;;;;;;6234779;23;20004;-95
2021/04/25 10:15:52;;;;;;;5.18;3.38;;;14.00;35.50;;;;;;6234661;23;20004;-95
2021/04/25 10:18:18;;;;;;;4.85;2.70;;;13.80;35.50;;;;;;6235192;23;20043;-94
2021/04/25 10:20:54;;;;;;;6.18;3.55;;;13.80;36.00;;;;;;6235318;23;20008;-94
2021/04/25 10:23:21;;;;;;;5.10;3.47;;;13.80;36.00;;;;;;6238826;23;20000;-95
2021/04/25 10:25:50;;;;;;;5.03;3.65;;;13.70;36.20;;;;;;6233743;23;20004;-95
2021/04/25 10:28:28;;;;;;;5.03;3.65;;;13.70;36.50;;;;;;6233641;23;20091;-95
2021/04/25 10:31:06;;;;;;;5.88;3.58;;;13.80;35.80;;;;;;6242151;23;20012;-94
2021/04/25 10:33:51;;;;;;;5.22;3.60;;;13.80;35.80;;;;;;6239190;23;20011;-95
2021/04/25 10:36:17;;;;;;;3.90;3.40;;;13.80;35.40;;;;;;6240720;23;20004;-95
2021/04/25 10:38:45;;;;;;;5.82;3.72;;;13.80;36.00;;;;;;6243712;23;20010;-95
2021/04/25 10:41:29;;;;;;;3.83;2.53;;;13.80;36.10;;;;;;6242475;23;20004;-95
2021/04/25 10:44:05;;;;;;;4.47;3.22;;;13.90;36.60;;;;;;6242835;23;20000;-95
2021/04/25 10:46:55;;;;;;;3.95;2.85;;;14.10;36.60;;;;;;6238460;23;20000;-96
2021/04/25 10:49:54;;;;;;;7.63;3.97;;;14.30;36.10;;;;;;6241522;23;20016;-95
2021/04/25 10:52:24;;;;;;;5.38;3.70;;;14.50;35.10;;;;;;6161200;23;20011;-95
2021/04/25 10:57:53;;;;;;;6.10;3.88;;;14.40;34.20;;;;;;6267391;23;19999;-95
2021/04/25 11:00:31;;;;;;;6.72;3.60;;;14.50;35.50;;;;;;6263118;23;20408;-95
2021/04/25 11:02:58;;;;;;;5.15;3.80;;;14.50;34.30;;;;;;6233231;23;20091;-94
2021/04/25 11:05:50;;;;;;;6.45;3.63;;;14.60;35.10;;;;;;6240575;23;20519;-95
2021/04/25 11:11:01;;;;;;;3.67;2.88;;;15.00;35.20;;;;;;6297146;22;20428;-95
2021/04/25 11:13:44;;;;;;;6.63;3.22;;;15.10;35.30;;;;;;6269374;22;20007;-94
2021/04/25 11:16:16;;;;;;;5.75;3.72;;;15.10;33.80;;;;;;6273620;22;19984;-95
2021/04/25 11:19:10;;;;;;;5.22;3.80;;;15.00;34.20;;;;;;6271063;22;20087;-95
2021/04/25 11:21:42;;;;;;;5.03;3.70;;;14.90;33.30;;;;;;6242262;23;20011;-94
2021/04/25 11:24:09;;;;;;;4.55;3.38;;;14.90;33.50;;;;;;6285696;22;20019;-95
2021/04/25 11:26:38;;;;;;;3.47;3.10;;;14.90;34.20;;;;;;6270936;22;20019;-94
2021/04/25 11:29:15;;;;;;;2.88;2.53;;;14.90;33.90;;;;;;6272122;22;20029;-94
2021/04/25 11:34:29;;;;;;;2.45;2.20;;;15.00;34.30;;;;;;6297161;22;19988;-94
2021/04/25 11:37:03;;;;;;;3.83;2.60;;;15.30;34.80;;;;;;6272974;22;20000;-95
2021/04/25 11:39:36;;;;;;;5.55;3.10;;;15.60;34.80;;;;;;6270747;22;20000;-95
2021/04/25 11:42:44;;;;;;;4.20;2.33;;;15.90;34.30;;;;;;6275222;22;20019;-94
2021/04/25 11:45:13;;;;;;;5.25;2.80;;;16.10;33.30;;;;;;6202953;22;20241;-95
2021/04/25 11:47:55;;;;;;;3.95;2.92;;;16.20;33.40;;;;;;6272021;22;20030;-96
2021/04/25 11:50:27;;;;;;;3.42;2.53;;;16.10;32.60;;;;;;6269945;22;20008;-95
2021/04/25 11:53:03;;;;;;;2.97;2.58;;;16.00;33.00;;;;;;6269808;22;20010;-95
2021/04/25 11:55:30;;;;;;;5.43;3.00;;;15.80;33.30;;;;;;6268586;22;20003;-96
2021/04/25 11:57:56;;;;;;;3.22;2.83;;;15.80;33.50;;;;;;6266628;22;20438;-95
2021/04/25 12:00:38;;;;;;;3.20;2.72;;;15.80;33.50;;;;;;6268955;22;19984;-95
2021/04/25 12:03:12;;;;;;;3.67;2.60;;;15.70;33.40;;;;;;6269878;22;20029;-95
2021/04/25 12:05:42;;;;;;;3.47;2.80;;;15.70;33.40;;;;;;6276045;22;20027;-94
2021/04/25 12:08:23;;;;;;;7.68;3.22;;;15.50;33.20;;;;;;6277607;22;20004;-95
2021/04/25 12:16:23;;;;;;;5.78;3.47;;;14.90;33.60;;;;;;6234230;22;20043;-93
2021/04/25 12:18:55;;;;;;;5.18;4.05;;;14.70;34.10;;;;;;6245984;23;20004;-94
2021/04/25 12:21:26;;;;;;;5.45;3.35;;;14.50;35.30;;;;;;6218475;23;20020;-94
2021/04/25 12:23:58;;;;;;;4.93;3.63;;;14.10;36.30;;;;;;6215836;23;20007;-95
2021/04/25 12:26:27;;;;;;;5.05;3.60;;;13.90;36.90;;;;;;6216543;23;19989;-95
2021/04/25 12:28:56;;;;;;;4.68;3.67;;;13.70;37.70;;;;;;6213044;23;19988;-95
2021/04/25 12:31:25;;;;;;;5.93;3.60;;;13.70;38.40;;;;;;6246854;22;20020;-94
2021/04/25 12:33:56;;;;;;;7.07;3.47;;;13.70;38.60;;;;;;6275686;22;20002;-94
2021/04/25 12:36:32;;;;;;;3.03;2.70;;;13.80;38.80;;;;;;6273839;22;20007;-94
2021/04/25 12:39:15;;;;;;;2.72;2.53;;;14.30;39.20;;;;;;6269140;22;20006;-94
2021/04/25 12:41:49;;;;;;;2.72;2.50;;;14.90;39.60;;;;;;6275446;22;19996;-95
2021/04/25 12:44:38;;;;;;;3.40;2.60;;;15.70;39.50;;;;;;6276591;22;19991;-94
2021/04/25 12:47:10;;;;;;;9.20;3.00;;;16.70;38.70;;;;;;6278116;22;20011;-95
2021/04/25 12:49:38;;;;;;;4.97;3.05;;;17.40;38.00;;;;;;6264265;22;20071;-92
2021/04/25 12:52:11;;;;;;;3.65;2.58;;;17.70;36.50;;;;;;6256900;22;20010;-92
2021/04/25 12:54:44;;;;;;;4.45;3.25;;;18.00;35.40;;;;;;6271931;22;19998;-93
2021/04/25 12:57:12;;;;;;;3.53;2.83;;;18.40;35.40;;;;;;6236053;22;20010;-92
2021/04/25 12:59:39;;;;;;;4.28;1.90;;;18.70;36.20;;;;;;6247881;22;20023;-94
2021/04/25 13:02:15;;;;;;;2.42;1.55;;;19.40;36.30;;;;;;6241526;22;20012;-93
2021/04/25 13:05:18;;;;;;;4.00;3.22;;;20.30;36.30;;;;;;6243548;23;20000;-93
2021/04/25 13:07:44;;;;;;;4.38;3.33;;;20.40;31.90;;;;;;6236686;23;20000;-93
2021/04/25 13:10:17;;;;;;;6.28;3.72;;;19.70;32.90;;;;;;6237627;23;20363;-92
2021/04/25 13:13:12;;;;;;;4.53;3.77;;;19.30;33.70;;;;;;6241156;23;20019;-93